Harbour Breton, Canada
Current Conditions -  °F | °C
As of 6:00 PM on Monday 22 Dec 2014 (Local Time) from LFVP Reporting Station
Broken Clouds Broken Clouds  
Wind Chill: 20°   Ceiling: 1300
Heat Index: 28°   Visibility: 6mi
Dew Point: 25°   Wind: 8mph
Humidity: 86%   Direction: 50°NE
Pressure: 30.42"   Gusts: NA
Location:  47.48°N, 55.83°W
Report Text: LFVP 222100Z 05007KT 9999 BKN013 M02/M04 Q1030 NOSIG
Loading
Personal Weather Stations






























Interactive Weather Map New forecast layout! Learn more

10-Day Weather Forecast

Advertisements
Track Severe Weather on mobile